createdAt,value
2018-11-23T00:00:06.088Z,101388.09
2018-11-23T00:02:32.055Z,101387.48
2018-11-23T00:04:58.007Z,101386.78
2018-11-23T00:07:23.966Z,101389.42
2018-11-23T00:09:50.009Z,101389.91
2018-11-23T00:12:16.064Z,101392.55
2018-11-23T00:14:42.038Z,101393.98
2018-11-23T00:17:08.016Z,101392.81
2018-11-23T00:19:33.973Z,101390.29
2018-11-23T00:21:59.939Z,101394.36
2018-11-23T00:24:25.888Z,101394.51
2018-11-23T00:26:51.841Z,101396.77
2018-11-23T00:29:17.787Z,101396.44
2018-11-23T00:31:43.736Z,101402.20
2018-11-23T00:34:09.689Z,101406.64
2018-11-23T00:36:35.680Z,101407.97
2018-11-23T00:39:01.637Z,101403.64
2018-11-23T00:41:27.604Z,101410.11
2018-11-23T00:43:53.544Z,101404.34
2018-11-23T00:46:19.528Z,101405.55
2018-11-23T00:48:45.476Z,101410.45
2018-11-23T00:51:11.585Z,101411.66
2018-11-23T00:53:37.558Z,101410.83
2018-11-23T00:56:03.518Z,101399.78
2018-11-23T00:58:29.556Z,101406.01
2018-11-23T01:00:55.505Z,101401.70
2018-11-23T01:03:21.473Z,101403.64
2018-11-23T01:05:47.436Z,101404.13
2018-11-23T01:08:13.388Z,101402.43
2018-11-23T01:10:39.376Z,101400.66
2018-11-23T01:13:05.344Z,101406.87
2018-11-23T01:15:31.305Z,101404.84
2018-11-23T01:17:57.264Z,101409.77
2018-11-23T01:20:23.215Z,101403.30
2018-11-23T01:22:49.166Z,101401.98
2018-11-23T01:25:15.118Z,101406.42
2018-11-23T01:27:41.089Z,101404.28
2018-11-23T01:30:07.041Z,101405.94
2018-11-23T01:32:32.993Z,101400.20
2018-11-23T01:34:58.934Z,101400.66
2018-11-23T01:37:24.886Z,101393.12
2018-11-23T01:39:50.940Z,101403.67
2018-11-23T01:42:16.892Z,101397.30
2018-11-23T01:44:43.001Z,101395.98
2018-11-23T01:47:08.948Z,101398.52
2018-11-23T01:49:34.893Z,101404.61
2018-11-23T01:52:00.856Z,101399.12
2018-11-23T01:54:26.808Z,101400.44
2018-11-23T01:56:52.844Z,101399.34
2018-11-23T01:59:18.824Z,101392.87
2018-11-23T02:01:44.764Z,101393.73
2018-11-23T02:04:10.757Z,101397.31
2018-11-23T02:06:36.740Z,101399.83
2018-11-23T02:09:02.689Z,101395.99
2018-11-23T02:11:28.707Z,101392.41
2018-11-23T02:13:54.660Z,101386.16
2018-11-23T02:16:20.684Z,101386.16
2018-11-23T02:18:46.661Z,101388.56
2018-11-23T02:21:12.693Z,101388.94
2018-11-23T02:23:38.670Z,101392.41
2018-11-23T02:26:04.617Z,101401.26
2018-11-23T02:28:30.584Z,101401.59
2018-11-23T02:30:56.527Z,101396.81
2018-11-23T02:33:22.552Z,101396.32
2018-11-23T02:35:48.520Z,101389.02
2018-11-23T02:38:14.491Z,101396.09
2018-11-23T02:40:40.460Z,101401.86
2018-11-23T02:43:06.423Z,101401.64
2018-11-23T02:45:32.404Z,101408.72
2018-11-23T02:47:58.424Z,101403.94
2018-11-23T02:50:24.380Z,101397.08
2018-11-23T02:52:50.328Z,101394.07
2018-11-23T02:55:16.281Z,101391.20
2018-11-23T02:57:42.242Z,101394.07
2018-11-23T03:00:08.197Z,101391.32
2018-11-23T03:02:34.151Z,101390.64
2018-11-23T03:05:00.102Z,101384.12
2018-11-23T03:07:26.067Z,101390.11
2018-11-23T03:09:52.021Z,101377.64
2018-11-23T03:12:17.987Z,101378.23
2018-11-23T03:14:43.952Z,101380.42
2018-11-23T03:17:09.965Z,101382.80
2018-11-23T03:19:35.917Z,101384.72
2018-11-23T03:22:01.881Z,101375.14
2018-11-23T03:24:27.821Z,101376.09
2018-11-23T03:26:53.865Z,101373.60
2018-11-23T03:29:19.815Z,101377.06
2018-11-23T03:31:45.825Z,101378.88
2018-11-23T03:34:11.815Z,101377.55
2018-11-23T03:36:37.828Z,101367.46
2018-11-23T03:39:03.794Z,101370.10
2018-11-23T03:41:29.787Z,101368.78
2018-11-23T03:43:55.813Z,101378.95
2018-11-23T03:46:21.802Z,101370.70
2018-11-23T03:48:47.820Z,101369.64
2018-11-23T03:51:14.031Z,101371.30
2018-11-23T03:53:39.980Z,101368.55
2018-11-23T03:56:05.931Z,101367.57
2018-11-23T03:58:31.893Z,101369.11
2018-11-23T04:00:57.842Z,101366.70
2018-11-23T04:03:23.808Z,101364.44
2018-11-23T04:05:49.824Z,101366.70
2018-11-23T04:08:15.796Z,101358.45
2018-11-23T04:10:41.813Z,101355.92
2018-11-23T04:13:07.763Z,101359.39
2018-11-23T04:15:33.734Z,101373.08
2018-11-23T04:17:59.785Z,101373.30
2018-11-23T04:20:25.789Z,101372.47
2018-11-23T04:22:51.741Z,101374.62
2018-11-23T04:25:17.692Z,101375.94
2018-11-23T04:27:43.660Z,101385.54
2018-11-23T04:30:09.622Z,101376.42
2018-11-23T04:32:35.631Z,101376.91
2018-11-23T04:35:01.593Z,101376.77
2018-11-23T04:37:27.548Z,101367.91
2018-11-23T04:39:53.509Z,101369.22
2018-11-23T04:42:19.475Z,101374.35
2018-11-23T04:44:45.416Z,101375.44
2018-11-23T04:47:11.393Z,101372.31
2018-11-23T04:49:37.357Z,101366.05
2018-11-23T04:54:34.757Z,101355.28
2018-11-23T04:57:00.738Z,101353.95
2018-11-23T04:59:26.704Z,101357.58
2018-11-23T05:01:52.659Z,101365.48
2018-11-23T05:04:18.652Z,101371.71
2018-11-23T05:06:44.600Z,101363.80
2018-11-23T05:09:10.584Z,101363.34
2018-11-23T05:11:36.530Z,101365.83
2018-11-23T05:14:02.485Z,101361.88
2018-11-23T05:16:28.449Z,101364.88
2018-11-23T05:18:54.480Z,101362.36
2018-11-23T05:21:20.444Z,101361.16
2018-11-23T05:23:46.396Z,101367.15
2018-11-23T05:26:12.454Z,101361.27
2018-11-23T05:28:38.430Z,101366.88
2018-11-23T05:31:04.369Z,101365.81
2018-11-23T05:33:30.326Z,101362.31
2018-11-23T05:35:56.299Z,101359.56
2018-11-23T05:38:22.252Z,101364.02
2018-11-23T05:40:48.269Z,101370.12
2018-11-23T05:43:14.208Z,101353.09
2018-11-23T05:45:40.160Z,101354.67
2018-11-23T05:48:06.173Z,101351.32
2018-11-23T05:50:32.112Z,101348.34
2018-11-23T05:52:58.122Z,101347.62
2018-11-23T05:55:24.093Z,101341.30
2018-11-23T05:57:50.047Z,101346.80
2018-11-23T06:00:15.988Z,101341.30
2018-11-23T06:02:42.012Z,101342.25
2018-11-23T06:05:07.963Z,101336.26
2018-11-23T06:07:33.929Z,101344.05
2018-11-23T06:09:59.886Z,101334.83
2018-11-23T06:12:25.840Z,101335.66
2018-11-23T06:14:51.793Z,101337.34
2018-11-23T06:17:17.747Z,101339.83
2018-11-23T06:19:43.691Z,101342.23
2018-11-23T06:22:09.635Z,101342.80
2018-11-23T06:24:35.651Z,101335.72
2018-11-23T06:27:01.714Z,101335.72
2018-11-23T06:29:27.692Z,101334.32
2018-11-23T06:31:53.643Z,101328.67
2018-11-23T06:34:19.608Z,101336.09
2018-11-23T06:36:45.562Z,101339.23
2018-11-23T06:39:11.601Z,101341.03
2018-11-23T06:41:37.739Z,101348.45
2018-11-23T06:44:03.809Z,101341.30
2018-11-23T06:46:29.787Z,101346.69
2018-11-23T06:48:55.742Z,101350.77
2018-11-23T06:51:21.800Z,101359.88
2018-11-23T06:53:47.752Z,101357.25
2018-11-23T06:56:13.704Z,101357.51
2018-11-23T06:58:39.684Z,101361.31
2018-11-23T07:01:05.629Z,101354.12
2018-11-23T07:03:31.581Z,101359.77
2018-11-23T07:05:57.560Z,101358.18
2018-11-23T07:08:23.514Z,101363.68
2018-11-23T07:10:49.464Z,101362.84
2018-11-23T07:13:15.428Z,101367.15
2018-11-23T07:15:41.421Z,101359.84
2018-11-23T07:18:07.373Z,101352.78
2018-11-23T07:20:33.333Z,101351.92
2018-11-23T07:22:59.288Z,101347.97
2018-11-23T07:25:25.235Z,101347.75
2018-11-23T07:27:51.195Z,101357.35
2018-11-23T07:30:17.157Z,101353.02
2018-11-23T07:32:43.090Z,101359.39
2018-11-23T07:35:09.036Z,101350.92
2018-11-23T07:37:34.989Z,101354.04
2018-11-23T07:40:00.993Z,101357.51
2018-11-23T07:42:27.026Z,101353.89
2018-11-23T07:44:53.020Z,101350.55
2018-11-23T07:47:18.979Z,101353.28
2018-11-23T07:49:44.960Z,101355.66
2018-11-23T07:52:10.913Z,101360.33
2018-11-23T07:54:36.876Z,101351.92
2018-11-23T07:57:02.830Z,101348.69
2018-11-23T07:59:28.770Z,101343.29
2018-11-23T08:01:54.735Z,101344.72
2018-11-23T08:04:20.698Z,101344.88
2018-11-23T08:06:46.726Z,101345.82
2018-11-23T08:09:12.676Z,101346.80
2018-11-23T08:11:39.733Z,101345.59
2018-11-23T08:14:05.708Z,101348.84
2018-11-23T08:16:31.777Z,101353.17
2018-11-23T08:18:57.733Z,101356.27
2018-11-23T08:21:23.801Z,101354.95
2018-11-23T08:23:49.760Z,101361.80
2018-11-23T08:26:15.713Z,101359.17
2018-11-23T08:28:41.831Z,101357.85
2018-11-23T08:31:07.760Z,101352.23
2018-11-23T08:33:33.736Z,101353.89
2018-11-23T08:35:59.822Z,101358.78
2018-11-23T08:38:25.919Z,101354.72
2018-11-23T08:40:51.879Z,101353.25
2018-11-23T08:43:18.024Z,101355.28
2018-11-23T08:45:44.076Z,101352.52
2018-11-23T08:48:10.066Z,101353.35
2018-11-23T08:50:36.045Z,101351.69
2018-11-23T08:53:02.005Z,101344.39
2018-11-23T08:58:00.373Z,101339.38
2018-11-23T09:00:26.335Z,101340.32
2018-11-23T09:02:52.322Z,101343.08
2018-11-23T09:05:18.274Z,101339.61
2018-11-23T09:07:44.265Z,101334.59
2018-11-23T09:10:10.245Z,101335.58
2018-11-23T09:12:36.197Z,101334.33
2018-11-23T09:15:02.160Z,101328.83
2018-11-23T09:17:28.120Z,101337.46
2018-11-23T09:19:54.150Z,101340.92
2018-11-23T09:22:23.565Z,101336.14
2018-11-23T09:24:46.089Z,101337.34
2018-11-23T09:27:12.071Z,101335.05
2018-11-23T09:29:38.012Z,101336.73
2018-11-23T09:32:03.961Z,101333.12
2018-11-23T09:34:29.920Z,101329.16
2018-11-23T09:36:55.876Z,101324.72
2018-11-23T09:39:21.822Z,101323.40
2018-11-23T09:41:47.811Z,101326.41
2018-11-23T09:44:13.801Z,101321.95
2018-11-23T09:46:39.745Z,101312.02
2018-11-23T09:49:05.697Z,101314.05
2018-11-23T09:51:31.671Z,101311.53
2018-11-23T09:53:57.605Z,101309.38
2018-11-23T09:56:23.642Z,101307.08
2018-11-23T09:58:49.694Z,101308.40
2018-11-23T10:01:15.659Z,101304.93
2018-11-23T10:03:41.678Z,101311.03
2018-11-23T10:06:07.657Z,101306.13
2018-11-23T10:08:37.317Z,101300.48
2018-11-23T10:10:59.545Z,101298.06
2018-11-23T10:13:25.511Z,101307.06
2018-11-23T10:15:51.573Z,101306.08
2018-11-23T10:18:17.520Z,101305.96
2018-11-23T10:20:43.472Z,101297.34
2018-11-23T10:23:09.428Z,101290.38
2018-11-23T10:25:35.400Z,101289.42
2018-11-23T10:28:01.347Z,101290.96
2018-11-23T10:30:27.327Z,101285.69
2018-11-23T10:32:53.313Z,101282.66
2018-11-23T10:35:19.288Z,101287.22
2018-11-23T10:37:45.242Z,101280.02
2018-11-23T10:40:11.193Z,101279.41
2018-11-23T10:42:37.164Z,101276.62
2018-11-23T10:45:03.119Z,101272.66
2018-11-23T10:47:29.207Z,101264.25
2018-11-23T10:49:55.161Z,101256.22
2018-11-23T10:52:21.153Z,101259.56
2018-11-23T10:54:47.130Z,101253.67
2018-11-23T10:57:13.085Z,101242.13
2018-11-23T10:59:39.823Z,101242.02
2018-11-23T11:02:05.025Z,101230.35
2018-11-23T11:04:31.032Z,101225.62
2018-11-23T11:06:56.978Z,101219.39
2018-11-23T11:09:22.924Z,101220.56
2018-11-23T11:11:48.881Z,101217.92
2018-11-23T11:14:14.924Z,101219.95
2018-11-23T11:16:40.961Z,101223.29
2018-11-23T11:19:06.929Z,101214.17
2018-11-23T11:21:32.877Z,101216.81
2018-11-23T11:23:58.892Z,101206.26
2018-11-23T11:26:24.849Z,101200.30
2018-11-23T11:28:50.807Z,101194.05
2018-11-23T11:31:16.829Z,101192.11
2018-11-23T11:33:42.805Z,101190.42
2018-11-23T11:36:08.760Z,101184.68
2018-11-23T11:38:34.733Z,101185.51
2018-11-23T11:41:00.685Z,101184.03
2018-11-23T11:43:26.661Z,101184.19
2018-11-23T11:45:52.604Z,101186.83
2018-11-23T11:48:18.609Z,101184.03
2018-11-23T11:50:44.580Z,101183.58
2018-11-23T11:53:10.606Z,101174.67
2018-11-23T11:55:36.564Z,101165.43
2018-11-23T11:58:02.638Z,101163.41
2018-11-23T12:00:28.601Z,101162.58
2018-11-23T12:02:54.572Z,101157.80
2018-11-23T12:05:20.567Z,101160.56
2018-11-23T12:07:46.507Z,101154.94
2018-11-23T12:10:12.468Z,101157.70
2018-11-23T12:12:38.413Z,101153.05
2018-11-23T12:15:04.394Z,101155.02
2018-11-23T12:17:30.337Z,101149.73
2018-11-23T12:19:56.406Z,101151.05
2018-11-23T12:22:22.696Z,101142.27
2018-11-23T12:24:48.750Z,101134.52
2018-11-23T12:27:14.746Z,101131.87
2018-11-23T12:29:40.821Z,101129.70
2018-11-23T12:32:06.814Z,101131.17
2018-11-23T12:34:32.735Z,101124.41
2018-11-23T12:36:58.705Z,101120.95
2018-11-23T12:39:24.684Z,101127.91
2018-11-23T12:41:50.625Z,101123.80
2018-11-23T12:44:16.627Z,101124.30
2018-11-23T12:46:42.593Z,101116.74
2018-11-23T12:49:08.550Z,101108.25
2018-11-23T12:51:34.577Z,101102.48
2018-11-23T12:54:00.540Z,101096.25
2018-11-23T12:56:26.510Z,101093.24
2018-11-23T12:58:52.492Z,101092.29
2018-11-23T13:01:18.488Z,101088.33
2018-11-23T13:03:44.504Z,101087.71
2018-11-23T13:06:10.476Z,101082.89
2018-11-23T13:08:36.445Z,101078.73
2018-11-23T13:11:02.412Z,101082.44
2018-11-23T13:13:28.377Z,101077.98
2018-11-23T13:15:54.351Z,101078.47
2018-11-23T13:18:20.297Z,101080.75
2018-11-23T13:20:46.248Z,101079.80
2018-11-23T13:23:12.229Z,101073.04
2018-11-23T13:25:38.188Z,101073.41
2018-11-23T13:28:04.158Z,101064.99
2018-11-23T13:30:30.135Z,101064.50
2018-11-23T13:32:56.088Z,101059.34
2018-11-23T13:35:22.149Z,101062.64
2018-11-23T13:37:48.091Z,101060.00
2018-11-23T13:40:14.044Z,101056.38
2018-11-23T13:42:40.053Z,101056.71
2018-11-23T13:45:06.072Z,101053.12
2018-11-23T13:47:32.393Z,101042.20
2018-11-23T13:49:58.330Z,101039.55
2018-11-23T13:52:24.304Z,101040.05
2018-11-23T13:54:50.262Z,101038.73
2018-11-23T13:57:16.225Z,101041.73
2018-11-23T13:59:42.261Z,101035.27
2018-11-23T14:02:08.287Z,101034.44
2018-11-23T14:04:34.265Z,101036.09
2018-11-23T14:07:00.224Z,101031.30
2018-11-23T14:09:26.252Z,101026.73
2018-11-23T14:11:52.204Z,101020.83
2018-11-23T14:14:18.168Z,101023.80
2018-11-23T14:16:44.120Z,101018.19
2018-11-23T14:19:10.096Z,101012.05
2018-11-23T14:21:36.112Z,101015.18
2018-11-23T14:24:02.059Z,101007.63
2018-11-23T14:29:00.353Z,100999.84
2018-11-23T14:31:26.319Z,101000.05
2018-11-23T14:33:52.413Z,100997.41
2018-11-23T14:36:18.373Z,100994.89
2018-11-23T14:38:44.324Z,100997.20
2018-11-23T14:41:10.293Z,100991.22
2018-11-23T14:43:36.243Z,100992.55
2018-11-23T14:46:02.228Z,100995.55
2018-11-23T14:48:28.253Z,100992.75
2018-11-23T14:50:54.232Z,100996.01
2018-11-23T14:53:20.228Z,100999.02
2018-11-23T14:55:46.188Z,100999.22
2018-11-23T14:58:12.144Z,100993.78
2018-11-23T15:00:38.105Z,100998.02
2018-11-23T15:03:04.082Z,100995.59
2018-11-23T15:05:30.064Z,100996.57
2018-11-23T15:07:56.042Z,100996.57
2018-11-23T15:10:22.009Z,100994.42
2018-11-23T15:12:47.947Z,100986.97
2018-11-23T15:15:13.900Z,100986.14
2018-11-23T15:17:39.886Z,100987.62
2018-11-23T15:20:05.829Z,100983.80
2018-11-23T15:22:31.805Z,100984.28
2018-11-23T15:24:57.760Z,100982.27
2018-11-23T15:27:23.730Z,100979.96
2018-11-23T15:29:49.736Z,100983.22
2018-11-23T15:32:15.710Z,100977.61
2018-11-23T15:34:41.672Z,100973.66
2018-11-23T15:37:07.634Z,100984.34
2018-11-23T15:39:33.666Z,100982.19
2018-11-23T15:41:59.655Z,100981.37
2018-11-23T15:44:25.617Z,100977.12
2018-11-23T15:46:51.581Z,100972.66
2018-11-23T15:49:17.520Z,100964.48
2018-11-23T15:51:43.493Z,100966.27
2018-11-23T15:54:09.443Z,100967.12
2018-11-23T15:56:35.407Z,100963.80
2018-11-23T15:59:01.365Z,100962.47
2018-11-23T16:01:27.392Z,100964.41
2018-11-23T16:03:53.360Z,100960.13
2018-11-23T16:06:19.288Z,100963.92
2018-11-23T16:08:45.236Z,100968.87
2018-11-23T16:11:11.192Z,100965.86
2018-11-23T16:13:37.165Z,100972.13
2018-11-23T16:16:03.241Z,100969.98
2018-11-23T16:18:29.227Z,100971.80
2018-11-23T16:20:55.177Z,100967.97
2018-11-23T16:23:21.173Z,100968.80
2018-11-23T16:25:47.173Z,100960.75
2018-11-23T16:28:13.208Z,100960.38
2018-11-23T16:30:39.237Z,100960.75
2018-11-23T16:33:05.412Z,100959.14
2018-11-23T16:35:31.408Z,100950.88
2018-11-23T16:37:57.350Z,100954.55
2018-11-23T16:40:23.355Z,100952.05
2018-11-23T16:42:49.371Z,100953.16
2018-11-23T16:45:15.317Z,100954.27
2018-11-23T16:47:41.292Z,100951.84
2018-11-23T16:50:07.251Z,100954.14
2018-11-23T16:52:33.213Z,100948.38
2018-11-23T16:54:59.244Z,100951.64
2018-11-23T16:57:25.201Z,100949.20
2018-11-23T16:59:51.182Z,100947.55
2018-11-23T17:02:17.204Z,100951.84
2018-11-23T17:04:43.197Z,100944.55
2018-11-23T17:07:13.051Z,100947.34
2018-11-23T17:09:35.161Z,100949.83
2018-11-23T17:12:01.325Z,100949.16
2018-11-23T17:14:27.274Z,100943.39
2018-11-23T17:16:53.254Z,100947.68
2018-11-23T17:19:19.312Z,100943.92
2018-11-23T17:21:45.277Z,100949.07
2018-11-23T17:24:11.268Z,100955.17
2018-11-23T17:26:38.297Z,100950.72
2018-11-23T17:29:04.323Z,100956.50
2018-11-23T17:31:30.265Z,100956.98
2018-11-23T17:33:56.246Z,100956.30
2018-11-23T17:36:22.216Z,100953.98
2018-11-23T17:38:48.168Z,100957.61
2018-11-23T17:41:14.129Z,100960.38
2018-11-23T17:43:40.105Z,100952.95
2018-11-23T17:46:06.144Z,100952.00
2018-11-23T17:48:32.166Z,100950.31
2018-11-23T17:50:58.196Z,100945.53
2018-11-23T17:53:24.171Z,100938.44
2018-11-23T17:55:50.144Z,100932.96
2018-11-23T17:58:16.186Z,100934.64
2018-11-23T18:00:42.185Z,100929.36
2018-11-23T18:03:08.166Z,100922.77
2018-11-23T18:05:34.172Z,100921.66
2018-11-23T18:08:00.193Z,100915.72
2018-11-23T18:10:26.333Z,100907.14
2018-11-23T18:12:52.282Z,100906.28
2018-11-23T18:15:18.232Z,100907.96
2018-11-23T18:17:44.204Z,100912.41
2018-11-23T18:20:10.162Z,100902.69
2018-11-23T18:22:36.129Z,100897.41
2018-11-23T18:25:02.192Z,100895.59
2018-11-23T18:27:28.137Z,100888.17
2018-11-23T18:29:54.247Z,100881.08
2018-11-23T18:32:20.284Z,100888.86
2018-11-23T18:34:46.289Z,100891.83
2018-11-23T18:37:12.258Z,100886.89
2018-11-23T18:39:38.292Z,100888.91
2018-11-23T18:42:04.260Z,100887.58
2018-11-23T18:44:30.311Z,100888.28
2018-11-23T18:46:56.255Z,100889.46
2018-11-23T18:49:22.270Z,100876.47
2018-11-23T18:51:48.307Z,100876.99
2018-11-23T18:54:14.331Z,100872.08
2018-11-23T18:56:40.294Z,100870.95
2018-11-23T18:59:06.497Z,100872.47
2018-11-23T19:01:32.544Z,100875.94
2018-11-23T19:03:58.508Z,100872.47
2018-11-23T19:06:24.469Z,100878.25
2018-11-23T19:08:50.442Z,100873.44
2018-11-23T19:11:16.401Z,100871.22
2018-11-23T19:13:42.353Z,100873.83
2018-11-23T19:16:08.318Z,100871.19
2018-11-23T19:18:34.277Z,100864.88
2018-11-23T19:21:00.262Z,100867.52
2018-11-23T19:23:26.233Z,100862.02
2018-11-23T19:25:52.293Z,100862.17
2018-11-23T19:28:18.336Z,100863.13
2018-11-23T19:30:44.328Z,100867.09
2018-11-23T19:33:10.321Z,100859.04
2018-11-23T19:35:36.354Z,100862.17
2018-11-23T19:38:02.346Z,100858.71
2018-11-23T19:40:28.282Z,100853.56
2018-11-23T19:42:54.261Z,100842.88
2018-11-23T19:45:20.247Z,100843.83
2018-11-23T19:47:46.272Z,100838.75
2018-11-23T19:50:12.256Z,100835.16
2018-11-23T19:52:38.228Z,100832.52
2018-11-23T19:55:04.189Z,100833.14
2018-11-23T19:57:30.179Z,100837.73
2018-11-23T19:59:56.175Z,100831.75
2018-11-23T20:02:22.124Z,100830.60
2018-11-23T20:04:48.108Z,100837.53
2018-11-23T20:07:14.063Z,100834.69
2018-11-23T20:09:40.179Z,100837.00
2018-11-23T20:12:06.112Z,100834.69
2018-11-23T20:14:32.103Z,100828.92
2018-11-23T20:16:58.096Z,100829.41
2018-11-23T20:19:24.060Z,100825.45
2018-11-23T20:21:50.005Z,100821.99
2018-11-23T20:24:16.007Z,100818.53
2018-11-23T20:26:42.009Z,100820.17
2018-11-23T20:29:07.963Z,100812.95
2018-11-23T20:31:33.988Z,100809.33
2018-11-23T20:33:59.942Z,100801.77
2018-11-23T20:36:25.919Z,100793.85
2018-11-23T20:38:51.872Z,100791.21
2018-11-23T20:41:17.837Z,100788.02
2018-11-23T20:43:43.798Z,100776.83
2018-11-23T20:46:09.773Z,100770.53
2018-11-23T20:48:35.755Z,100771.03
2018-11-23T20:51:01.726Z,100773.00
2018-11-23T20:53:27.878Z,100770.36
2018-11-23T20:55:53.822Z,100768.22
2018-11-23T20:58:19.824Z,100771.03
2018-11-23T21:00:45.817Z,100774.98
2018-11-23T21:03:11.805Z,100773.30
2018-11-23T21:05:37.776Z,100777.62
2018-11-23T21:08:03.759Z,100785.54
2018-11-23T21:10:29.738Z,100781.58
2018-11-23T21:12:55.695Z,100780.27
2018-11-23T21:15:21.662Z,100777.62
2018-11-23T21:17:47.626Z,100778.45
2018-11-23T21:20:13.945Z,100777.82
2018-11-23T21:22:39.889Z,100775.81
2018-11-23T21:25:05.865Z,100776.63
2018-11-23T21:27:31.808Z,100772.18
2018-11-23T21:29:57.840Z,100761.79
2018-11-23T21:32:23.883Z,100757.97
2018-11-23T21:34:49.903Z,100755.33
2018-11-23T21:37:15.932Z,100751.50
2018-11-23T21:39:42.962Z,100750.19
2018-11-23T21:42:07.897Z,100751.86
2018-11-23T21:44:33.849Z,100739.30
2018-11-23T21:46:59.803Z,100738.80
2018-11-23T21:49:25.801Z,100734.16
2018-11-23T21:51:51.792Z,100733.13
2018-11-23T21:54:17.837Z,100730.83
2018-11-23T21:56:43.860Z,100725.91
2018-11-23T21:59:10.089Z,100728.38
2018-11-23T22:01:36.131Z,100726.11
2018-11-23T22:04:06.327Z,100720.00
2018-11-23T22:06:28.179Z,100725.12
2018-11-23T22:08:54.154Z,100724.16
2018-11-23T22:11:20.140Z,100715.88
2018-11-23T22:13:46.169Z,100719.84
2018-11-23T22:16:12.144Z,100720.96
2018-11-23T22:18:38.133Z,100720.83
2018-11-23T22:21:04.092Z,100714.86
2018-11-23T22:23:30.166Z,100709.25
2018-11-23T22:25:56.122Z,100707.58
2018-11-23T22:28:22.088Z,100699.33
2018-11-23T22:30:48.072Z,100704.25
2018-11-23T22:33:14.092Z,100698.97
2018-11-23T22:35:40.053Z,100701.77
2018-11-23T22:38:06.050Z,100695.64
2018-11-23T22:40:32.022Z,100693.00
2018-11-23T22:42:57.975Z,100694.32
2018-11-23T22:45:24.531Z,100687.09
2018-11-23T22:47:50.567Z,100692.05
2018-11-23T22:50:16.594Z,100691.91
2018-11-23T22:52:42.622Z,100686.77
2018-11-23T22:55:08.677Z,100683.63
2018-11-23T22:57:34.655Z,100689.73
2018-11-23T23:00:00.728Z,100691.55
2018-11-23T23:02:26.692Z,100683.77
2018-11-23T23:04:52.668Z,100677.17
2018-11-23T23:07:18.626Z,100674.20
2018-11-23T23:09:44.731Z,100673.88
2018-11-23T23:12:10.688Z,100669.23
2018-11-23T23:14:36.647Z,100664.78
2018-11-23T23:17:02.623Z,100667.91
2018-11-23T23:19:28.643Z,100662.94
2018-11-23T23:21:54.619Z,100662.08
2018-11-23T23:24:20.567Z,100655.66
2018-11-23T23:26:46.548Z,100656.97
2018-11-23T23:29:12.504Z,100650.19
2018-11-23T23:31:38.451Z,100645.73
2018-11-23T23:34:04.401Z,100643.42
2018-11-23T23:36:30.356Z,100642.30
2018-11-23T23:38:56.317Z,100639.66
2018-11-23T23:41:22.270Z,100640.02
2018-11-23T23:43:48.225Z,100641.34
2018-11-23T23:46:14.234Z,100634.58
2018-11-23T23:48:40.220Z,100642.48
2018-11-23T23:51:06.194Z,100642.66
2018-11-23T23:53:32.160Z,100642.30
2018-11-23T23:55:58.171Z,100634.38
2018-11-23T23:58:24.330Z,100637.19
